sensor_id;sensor_type;location;lat;lon;timestamp;pressure;altitude;pressure_sealevel;temperature;humidity
43420;BME280;29017;51.514;-0.178;2023-02-28T00:01:47;102825.94;;;6.20;75.20
43420;BME280;29017;51.514;-0.178;2023-02-28T00:51:40;102813.47;;;6.08;80.01
43420;BME280;29017;51.514;-0.178;2023-02-28T00:54:07;102824.63;;;6.12;79.34
43420;BME280;29017;51.514;-0.178;2023-02-28T00:56:34;102822.06;;;6.10;79.51
43420;BME280;29017;51.514;-0.178;2023-02-28T00:59:00;102822.84;;;6.12;79.62
43420;BME280;29017;51.514;-0.178;2023-02-28T01:01:27;102821.94;;;6.13;79.79
43420;BME280;29017;51.514;-0.178;2023-02-28T01:03:55;102828.00;;;6.14;79.95
43420;BME280;29017;51.514;-0.178;2023-02-28T01:06:22;102823.69;;;6.13;80.59
43420;BME280;29017;51.514;-0.178;2023-02-28T01:08:49;102830.69;;;6.12;79.94
43420;BME280;29017;51.514;-0.178;2023-02-28T01:11:16;102831.53;;;6.13;80.28
43420;BME280;29017;51.514;-0.178;2023-02-28T01:13:44;102823.00;;;6.09;81.04
43420;BME280;29017;51.514;-0.178;2023-02-28T01:16:11;102828.16;;;6.11;81.44
43420;BME280;29017;51.514;-0.178;2023-02-28T01:18:39;102830.06;;;6.07;81.11
43420;BME280;29017;51.514;-0.178;2023-02-28T01:21:07;102827.41;;;6.09;81.98
43420;BME280;29017;51.514;-0.178;2023-02-28T01:23:34;102829.00;;;6.11;82.40
43420;BME280;29017;51.514;-0.178;2023-02-28T01:28:31;102835.06;;;6.12;80.93
43420;BME280;29017;51.514;-0.178;2023-02-28T01:30:58;102827.22;;;6.12;81.24
43420;BME280;29017;51.514;-0.178;2023-02-28T01:33:24;102840.44;;;6.09;81.05
43420;BME280;29017;51.514;-0.178;2023-02-28T01:38:21;102832.00;;;6.04;81.48
43420;BME280;29017;51.514;-0.178;2023-02-28T01:40:49;102831.13;;;6.03;82.13
43420;BME280;29017;51.514;-0.178;2023-02-28T01:43:19;102833.03;;;5.99;82.61
43420;BME280;29017;51.514;-0.178;2023-02-28T01:45:46;102831.13;;;6.03;84.21
43420;BME280;29017;51.514;-0.178;2023-02-28T01:48:12;102831.84;;;6.07;84.61
43420;BME280;29017;51.514;-0.178;2023-02-28T01:50:41;102829.38;;;6.04;84.27
43420;BME280;29017;51.514;-0.178;2023-02-28T01:53:10;102827.53;;;6.06;82.93
43420;BME280;29017;51.514;-0.178;2023-02-28T01:55:39;102827.47;;;6.07;82.65
43420;BME280;29017;51.514;-0.178;2023-02-28T01:58:07;102828.38;;;6.06;82.56
43420;BME280;29017;51.514;-0.178;2023-02-28T02:00:35;102829.91;;;6.10;83.17
43420;BME280;29017;51.514;-0.178;2023-02-28T02:03:05;102830.91;;;6.08;81.99
43420;BME280;29017;51.514;-0.178;2023-02-28T02:05:36;102839.50;;;6.10;81.62
43420;BME280;29017;51.514;-0.178;2023-02-28T02:08:04;102829.22;;;6.07;81.92
43420;BME280;29017;51.514;-0.178;2023-02-28T02:13:05;102832.84;;;6.04;82.54
43420;BME280;29017;51.514;-0.178;2023-02-28T02:15:36;102832.06;;;6.02;82.24
43420;BME280;29017;51.514;-0.178;2023-02-28T02:18:10;102838.25;;;5.99;82.83
43420;BME280;29017;51.514;-0.178;2023-02-28T02:25:42;102829.88;;;5.93;83.39
43420;BME280;29017;51.514;-0.178;2023-02-28T02:28:20;102829.88;;;5.93;83.06
43420;BME280;29017;51.514;-0.178;2023-02-28T02:38:20;102830.19;;;5.87;84.52
43420;BME280;29017;51.514;-0.178;2023-02-28T02:40:57;102831.78;;;5.89;84.39
43420;BME280;29017;51.514;-0.178;2023-02-28T02:43:29;102832.63;;;5.90;84.22
43420;BME280;29017;51.514;-0.178;2023-02-28T02:45:59;102834.25;;;5.92;83.81
43420;BME280;29017;51.514;-0.178;2023-02-28T02:48:30;102830.00;;;5.90;84.09
43420;BME280;29017;51.514;-0.178;2023-02-28T02:50:59;102831.91;;;5.86;84.34
43420;BME280;29017;51.514;-0.178;2023-02-28T02:53:29;102825.75;;;5.89;84.38
43420;BME280;29017;51.514;-0.178;2023-02-28T02:55:56;102818.84;;;5.86;84.50
43420;BME280;29017;51.514;-0.178;2023-02-28T02:58:26;102829.44;;;5.83;84.63
43420;BME280;29017;51.514;-0.178;2023-02-28T03:00:55;102830.31;;;5.84;84.93
43420;BME280;29017;51.514;-0.178;2023-02-28T03:03:24;102817.13;;;5.87;85.21
43420;BME280;29017;51.514;-0.178;2023-02-28T03:05:56;102829.88;;;5.93;84.67
43420;BME280;29017;51.514;-0.178;2023-02-28T03:08:24;102822.13;;;5.91;84.77
43420;BME280;29017;51.514;-0.178;2023-02-28T03:10:52;102815.13;;;5.92;84.93
43420;BME280;29017;51.514;-0.178;2023-02-28T03:23:28;102828.75;;;5.98;85.27
43420;BME280;29017;51.514;-0.178;2023-02-28T03:30:56;102825.28;;;5.98;84.14
43420;BME280;29017;51.514;-0.178;2023-02-28T03:33:27;102832.34;;;5.96;84.51
43420;BME280;29017;51.514;-0.178;2023-02-28T03:35:56;102821.19;;;5.92;84.64
43420;BME280;29017;51.514;-0.178;2023-02-28T03:38:28;102832.72;;;5.88;84.67
43420;BME280;29017;51.514;-0.178;2023-02-28T03:40:58;102830.97;;;5.89;84.60
43420;BME280;29017;51.514;-0.178;2023-02-28T03:43:28;102830.97;;;5.89;85.05
43420;BME280;29017;51.514;-0.178;2023-02-28T03:45:56;102833.56;;;5.89;84.73
43420;BME280;29017;51.514;-0.178;2023-02-28T03:48:26;102828.34;;;5.89;84.42
43420;BME280;29017;51.514;-0.178;2023-02-28T03:50:57;102829.25;;;5.88;84.38
43420;BME280;29017;51.514;-0.178;2023-02-28T03:53:27;102843.25;;;5.87;84.79
43420;BME280;29017;51.514;-0.178;2023-02-28T03:55:59;102837.28;;;5.83;84.97
43420;BME280;29017;51.514;-0.178;2023-02-28T03:58:30;102837.34;;;5.82;84.57
43420;BME280;29017;51.514;-0.178;2023-02-28T04:01:03;102840.81;;;5.82;84.75
43420;BME280;29017;51.514;-0.178;2023-02-28T04:03:36;102840.94;;;5.79;85.12
43420;BME280;29017;51.514;-0.178;2023-02-28T04:06:03;102833.94;;;5.80;85.96
43420;BME280;29017;51.514;-0.178;2023-02-28T04:08:31;102835.66;;;5.81;84.71
43420;BME280;29017;51.514;-0.178;2023-02-28T04:11:01;102836.66;;;5.78;84.90
43420;BME280;29017;51.514;-0.178;2023-02-28T04:13:30;102841.25;;;5.73;84.70
43420;BME280;29017;51.514;-0.178;2023-02-28T04:15:57;102846.59;;;5.70;85.07
43420;BME280;29017;51.514;-0.178;2023-02-28T04:18:24;102834.53;;;5.68;85.08
43420;BME280;29017;51.514;-0.178;2023-02-28T04:20:51;102842.44;;;5.66;85.32
43420;BME280;29017;51.514;-0.178;2023-02-28T04:23:17;102837.38;;;5.63;85.30
43420;BME280;29017;51.514;-0.178;2023-02-28T04:25:44;102845.97;;;5.65;85.34
43420;BME280;29017;51.514;-0.178;2023-02-28T04:28:11;102842.50;;;5.65;85.01
43420;BME280;29017;51.514;-0.178;2023-02-28T04:30:38;102843.44;;;5.64;85.25
43420;BME280;29017;51.514;-0.178;2023-02-28T04:33:05;102847.94;;;5.60;85.34
43420;BME280;29017;51.514;-0.178;2023-02-28T04:35:32;102848.94;;;5.57;85.87
43420;BME280;29017;51.514;-0.178;2023-02-28T04:37:59;102842.81;;;5.58;85.69
43420;BME280;29017;51.514;-0.178;2023-02-28T04:40:26;102839.47;;;5.55;86.11
43420;BME280;29017;51.514;-0.178;2023-02-28T04:42:52;102849.16;;;5.53;85.85
43420;BME280;29017;51.514;-0.178;2023-02-28T04:45:19;102852.63;;;5.53;86.17
43420;BME280;29017;51.514;-0.178;2023-02-28T04:47:46;102854.44;;;5.51;86.40
43420;BME280;29017;51.514;-0.178;2023-02-28T04:50:13;102852.75;;;5.50;86.50
43420;BME280;29017;51.514;-0.178;2023-02-28T04:52:39;102851.75;;;5.53;87.50
43420;BME280;29017;51.514;-0.178;2023-02-28T04:55:06;102853.44;;;5.54;86.71
43420;BME280;29017;51.514;-0.178;2023-02-28T04:57:33;102852.63;;;5.53;86.34
43420;BME280;29017;51.514;-0.178;2023-02-28T05:00:00;102851.69;;;5.54;86.94
43420;BME280;29017;51.514;-0.178;2023-02-28T05:02:27;102847.31;;;5.55;86.76
43420;BME280;29017;51.514;-0.178;2023-02-28T05:04:54;102856.91;;;5.54;86.80
43420;BME280;29017;51.514;-0.178;2023-02-28T05:07:21;102855.97;;;5.55;86.70
43420;BME280;29017;51.514;-0.178;2023-02-28T05:09:47;102865.38;;;5.59;86.12
43420;BME280;29017;51.514;-0.178;2023-02-28T05:12:14;102859.38;;;5.57;86.09
43420;BME280;29017;51.514;-0.178;2023-02-28T05:14:41;102864.59;;;5.57;86.65
43420;BME280;29017;51.514;-0.178;2023-02-28T05:17:08;102863.69;;;5.58;86.14
43420;BME280;29017;51.514;-0.178;2023-02-28T05:19:36;102857.69;;;5.56;86.40
43420;BME280;29017;51.514;-0.178;2023-02-28T05:22:03;102867.13;;;5.59;86.43
43420;BME280;29017;51.514;-0.178;2023-02-28T05:24:29;102868.81;;;5.60;86.76
43420;BME280;29017;51.514;-0.178;2023-02-28T05:26:56;102857.53;;;5.59;86.98
43420;BME280;29017;51.514;-0.178;2023-02-28T05:29:23;102865.38;;;5.59;87.29
43420;BME280;29017;51.514;-0.178;2023-02-28T05:31:50;102863.75;;;5.57;87.27
43420;BME280;29017;51.514;-0.178;2023-02-28T05:34:17;102867.22;;;5.57;87.42
43420;BME280;29017;51.514;-0.178;2023-02-28T05:36:46;102861.91;;;5.59;86.99
43420;BME280;29017;51.514;-0.178;2023-02-28T05:39:13;102868.91;;;5.58;86.39
43420;BME280;29017;51.514;-0.178;2023-02-28T05:41:40;102875.81;;;5.59;86.96
43420;BME280;29017;51.514;-0.178;2023-02-28T05:44:08;102881.75;;;5.63;86.91
43420;BME280;29017;51.514;-0.178;2023-02-28T05:46:35;102876.44;;;5.65;86.76
43420;BME280;29017;51.514;-0.178;2023-02-28T05:49:01;102881.59;;;5.66;87.02
43420;BME280;29017;51.514;-0.178;2023-02-28T05:51:28;102877.22;;;5.67;86.59
43420;BME280;29017;51.514;-0.178;2023-02-28T05:53:58;102886.78;;;5.68;86.75
43420;BME280;29017;51.514;-0.178;2023-02-28T05:56:25;102894.59;;;5.68;86.18
43420;BME280;29017;51.514;-0.178;2023-02-28T05:58:52;102889.44;;;5.66;85.82
43420;BME280;29017;51.514;-0.178;2023-02-28T06:01:20;102902.50;;;5.66;86.88
43420;BME280;29017;51.514;-0.178;2023-02-28T06:03:47;102892.00;;;5.68;87.90
43420;BME280;29017;51.514;-0.178;2023-02-28T06:06:14;102888.31;;;5.72;86.04
43420;BME280;29017;51.514;-0.178;2023-02-28T06:08:41;102897.00;;;5.72;85.97
43420;BME280;29017;51.514;-0.178;2023-02-28T06:11:09;102893.81;;;5.66;85.72
43420;BME280;29017;51.514;-0.178;2023-02-28T06:13:36;102903.19;;;5.70;85.70
43420;BME280;29017;51.514;-0.178;2023-02-28T06:16:03;102898.97;;;5.67;86.60
43420;BME280;29017;51.514;-0.178;2023-02-28T06:18:32;102896.63;;;5.61;85.55
43420;BME280;29017;51.514;-0.178;2023-02-28T06:20:59;102897.34;;;5.65;85.84
43420;BME280;29017;51.514;-0.178;2023-02-28T06:23:26;102900.88;;;5.64;85.75
43420;BME280;29017;51.514;-0.178;2023-02-28T06:25:53;102908.56;;;5.67;85.56
43420;BME280;29017;51.514;-0.178;2023-02-28T06:28:24;102897.22;;;5.68;85.14
43420;BME280;29017;51.514;-0.178;2023-02-28T06:30:52;102899.81;;;5.68;85.36
43420;BME280;29017;51.514;-0.178;2023-02-28T06:33:18;102893.75;;;5.67;84.86
43420;BME280;29017;51.514;-0.178;2023-02-28T06:35:47;102896.38;;;5.67;85.25
43420;BME280;29017;51.514;-0.178;2023-02-28T06:38:16;102897.28;;;5.66;85.49
43420;BME280;29017;51.514;-0.178;2023-02-28T06:40:44;102904.25;;;5.66;85.91
43420;BME280;29017;51.514;-0.178;2023-02-28T06:43:11;102896.38;;;5.67;85.30
43420;BME280;29017;51.514;-0.178;2023-02-28T06:45:41;102885.06;;;5.67;85.26
43420;BME280;29017;51.514;-0.178;2023-02-28T06:48:08;102892.00;;;5.68;85.32
43420;BME280;29017;51.514;-0.178;2023-02-28T06:50:37;102885.00;;;5.68;85.54
43420;BME280;29017;51.514;-0.178;2023-02-28T06:53:04;102890.28;;;5.67;85.18
43420;BME280;29017;51.514;-0.178;2023-02-28T06:55:31;102887.53;;;5.70;86.45
43420;BME280;29017;51.514;-0.178;2023-02-28T06:57:58;102891.78;;;5.72;86.36
43420;BME280;29017;51.514;-0.178;2023-02-28T07:00:25;102885.56;;;5.75;85.68
43420;BME280;29017;51.514;-0.178;2023-02-28T07:02:52;102887.25;;;5.76;84.84
43420;BME280;29017;51.514;-0.178;2023-02-28T07:05:20;102888.09;;;5.76;84.54
43420;BME280;29017;51.514;-0.178;2023-02-28T07:07:47;102893.47;;;5.73;84.76
43420;BME280;29017;51.514;-0.178;2023-02-28T07:10:14;102895.16;;;5.74;84.78
43420;BME280;29017;51.514;-0.178;2023-02-28T07:12:45;102898.59;;;5.75;84.85
43420;BME280;29017;51.514;-0.178;2023-02-28T07:15:12;102909.00;;;5.76;85.54
43420;BME280;29017;51.514;-0.178;2023-02-28T07:17:39;102899.41;;;5.77;86.05
43420;BME280;29017;51.514;-0.178;2023-02-28T07:20:06;102900.88;;;5.82;86.69
43420;BME280;29017;51.514;-0.178;2023-02-28T07:22:33;102901.41;;;5.90;86.00
43420;BME280;29017;51.514;-0.178;2023-02-28T07:25:00;102912.94;;;5.85;84.60
43420;BME280;29017;51.514;-0.178;2023-02-28T07:27:27;102906.81;;;5.86;85.07
43420;BME280;29017;51.514;-0.178;2023-02-28T07:29:54;102905.72;;;5.91;84.59
43420;BME280;29017;51.514;-0.178;2023-02-28T07:32:21;102913.38;;;5.94;84.88
43420;BME280;29017;51.514;-0.178;2023-02-28T07:34:48;102908.09;;;5.96;85.03
43420;BME280;29017;51.514;-0.178;2023-02-28T07:37:15;102914.88;;;6.00;84.72
43420;BME280;29017;51.514;-0.178;2023-02-28T07:39:42;102917.09;;;6.09;85.50
43420;BME280;29017;51.514;-0.178;2023-02-28T07:42:09;102899.31;;;6.16;84.86
43420;BME280;29017;51.514;-0.178;2023-02-28T07:44:38;102906.09;;;6.20;84.11
43420;BME280;29017;51.514;-0.178;2023-02-28T07:47:07;102910.97;;;6.27;84.19
43420;BME280;29017;51.514;-0.178;2023-02-28T07:49:35;102908.81;;;6.35;82.86
43420;BME280;29017;51.514;-0.178;2023-02-28T07:52:03;102913.06;;;6.38;82.73
43420;BME280;29017;51.514;-0.178;2023-02-28T07:54:31;102906.94;;;6.39;82.83
43420;BME280;29017;51.514;-0.178;2023-02-28T07:56:59;102913.81;;;6.40;83.81
43420;BME280;29017;51.514;-0.178;2023-02-28T07:59:26;102913.69;;;6.43;83.65
43420;BME280;29017;51.514;-0.178;2023-02-28T08:01:57;102911.94;;;6.61;87.48
43420;BME280;29017;51.514;-0.178;2023-02-28T08:04:25;102916.41;;;6.93;91.57
43420;BME280;29017;51.514;-0.178;2023-02-28T08:06:52;102913.88;;;6.92;85.18
43420;BME280;29017;51.514;-0.178;2023-02-28T08:09:19;102916.34;;;6.95;82.00
43420;BME280;29017;51.514;-0.178;2023-02-28T08:11:47;102919.97;;;6.92;79.96
43420;BME280;29017;51.514;-0.178;2023-02-28T08:14:14;102918.41;;;6.88;79.78
43420;BME280;29017;51.514;-0.178;2023-02-28T08:16:44;102922.81;;;6.87;80.45
43420;BME280;29017;51.514;-0.178;2023-02-28T08:19:11;102934.66;;;6.95;81.60
43420;BME280;29017;51.514;-0.178;2023-02-28T08:21:38;102915.03;;;7.03;81.01
43420;BME280;29017;51.514;-0.178;2023-02-28T08:24:07;102920.25;;;7.03;80.01
43420;BME280;29017;51.514;-0.178;2023-02-28T08:26:34;102923.56;;;7.07;79.74
43420;BME280;29017;51.514;-0.178;2023-02-28T08:29:01;102922.50;;;7.11;79.88
43420;BME280;29017;51.514;-0.178;2023-02-28T08:31:28;102916.09;;;7.16;79.86
43420;BME280;29017;51.514;-0.178;2023-02-28T08:33:56;102922.63;;;7.25;79.96
43420;BME280;29017;51.514;-0.178;2023-02-28T08:36:25;102917.00;;;7.32;79.45
43420;BME280;29017;51.514;-0.178;2023-02-28T08:38:56;102919.13;;;7.42;78.93
43420;BME280;29017;51.514;-0.178;2023-02-28T08:41:23;102918.19;;;7.43;78.91
43420;BME280;29017;51.514;-0.178;2023-02-28T08:43:53;102926.59;;;7.49;78.28
43420;BME280;29017;51.514;-0.178;2023-02-28T08:46:20;102920.44;;;7.50;77.23
43420;BME280;29017;51.514;-0.178;2023-02-28T08:48:51;102918.63;;;7.35;77.11
43420;BME280;29017;51.514;-0.178;2023-02-28T08:51:18;102921.38;;;7.32;77.72
43420;BME280;29017;51.514;-0.178;2023-02-28T08:53:48;102911.84;;;7.31;77.99
43420;BME280;29017;51.514;-0.178;2023-02-28T08:56:16;102916.31;;;7.29;79.03
43420;BME280;29017;51.514;-0.178;2023-02-28T08:58:44;102913.53;;;7.32;78.65
43420;BME280;29017;51.514;-0.178;2023-02-28T09:01:13;102916.00;;;7.35;79.09
43420;BME280;29017;51.514;-0.178;2023-02-28T09:03:41;102913.13;;;7.40;78.54
43420;BME280;29017;51.514;-0.178;2023-02-28T09:06:09;102918.06;;;7.46;79.18
43420;BME280;29017;51.514;-0.178;2023-02-28T09:08:37;102904.78;;;7.49;77.57
43420;BME280;29017;51.514;-0.178;2023-02-28T09:11:09;102910.63;;;7.54;77.89
43420;BME280;29017;51.514;-0.178;2023-02-28T09:13:44;102904.22;;;7.59;78.22
43420;BME280;29017;51.514;-0.178;2023-02-28T09:16:12;102900.50;;;7.63;78.44
43420;BME280;29017;51.514;-0.178;2023-02-28T09:18:40;102899.09;;;7.73;77.04
43420;BME280;29017;51.514;-0.178;2023-02-28T09:21:09;102904.84;;;7.80;77.20
43420;BME280;29017;51.514;-0.178;2023-02-28T09:23:38;102896.81;;;7.83;76.64
43420;BME280;29017;51.514;-0.178;2023-02-28T09:26:05;102907.03;;;7.88;76.81
43420;BME280;29017;51.514;-0.178;2023-02-28T09:28:32;102902.50;;;7.91;75.95
43420;BME280;29017;51.514;-0.178;2023-02-28T09:31:00;102907.03;;;7.88;75.53
43420;BME280;29017;51.514;-0.178;2023-02-28T09:33:27;102904.59;;;7.85;75.93
43420;BME280;29017;51.514;-0.178;2023-02-28T09:38:24;102905.75;;;7.79;76.79
43420;BME280;29017;51.514;-0.178;2023-02-28T09:40:56;102900.19;;;7.85;77.85
43420;BME280;29017;51.514;-0.178;2023-02-28T09:43:26;102899.09;;;7.89;76.48
43420;BME280;29017;51.514;-0.178;2023-02-28T09:45:55;102897.06;;;7.94;76.86
43420;BME280;29017;51.514;-0.178;2023-02-28T09:48:27;102893.94;;;8.03;76.03
43420;BME280;29017;51.514;-0.178;2023-02-28T09:50:56;102883.03;;;8.11;75.96
43420;BME280;29017;51.514;-0.178;2023-02-28T09:53:28;102886.06;;;8.19;75.78
43420;BME280;29017;51.514;-0.178;2023-02-28T09:58:32;102881.75;;;8.34;76.33
43420;BME280;29017;51.514;-0.178;2023-02-28T10:01:05;102879.81;;;8.37;74.92
43420;BME280;29017;51.514;-0.178;2023-02-28T10:03:35;102882.53;;;8.36;74.66
43420;BME280;29017;51.514;-0.178;2023-02-28T10:06:07;102882.59;;;8.34;74.53
43420;BME280;29017;51.514;-0.178;2023-02-28T10:08:36;102892.25;;;8.34;74.63
43420;BME280;29017;51.514;-0.178;2023-02-28T10:11:09;102886.84;;;8.37;75.24
43420;BME280;29017;51.514;-0.178;2023-02-28T10:13:44;102890.91;;;8.42;74.95
43420;BME280;29017;51.514;-0.178;2023-02-28T10:16:14;102892.56;;;8.43;74.80
43420;BME280;29017;51.514;-0.178;2023-02-28T10:18:44;102895.09;;;8.45;75.07
43420;BME280;29017;51.514;-0.178;2023-02-28T10:21:15;102891.28;;;8.50;74.70
43420;BME280;29017;51.514;-0.178;2023-02-28T10:23:45;102889.44;;;8.52;75.90
43420;BME280;29017;51.514;-0.178;2023-02-28T10:26:15;102894.75;;;8.51;75.17
43420;BME280;29017;51.514;-0.178;2023-02-28T10:28:43;102885.03;;;8.53;76.69
43420;BME280;29017;51.514;-0.178;2023-02-28T10:31:11;102883.16;;;8.55;75.78
43420;BME280;29017;51.514;-0.178;2023-02-28T10:33:42;102886.34;;;8.60;76.28
43420;BME280;29017;51.514;-0.178;2023-02-28T10:38:40;102882.25;;;8.70;75.28
43420;BME280;29017;51.514;-0.178;2023-02-28T10:41:09;102873.38;;;8.73;76.30
43420;BME280;29017;51.514;-0.178;2023-02-28T10:43:40;102875.03;;;8.74;75.84
43420;BME280;29017;51.514;-0.178;2023-02-28T10:51:22;102889.00;;;8.74;77.26
43420;BME280;29017;51.514;-0.178;2023-02-28T10:53:50;102869.13;;;8.70;77.42
43420;BME280;29017;51.514;-0.178;2023-02-28T10:56:27;102866.59;;;8.69;77.93
43420;BME280;29017;51.514;-0.178;2023-02-28T11:03:55;102867.41;;;8.55;78.11
43420;BME280;29017;51.514;-0.178;2023-02-28T11:08:55;102859.41;;;8.27;80.40
43420;BME280;29017;51.514;-0.178;2023-02-28T11:11:23;102855.72;;;8.31;80.82
43420;BME280;29017;51.514;-0.178;2023-02-28T11:13:53;102854.91;;;8.29;81.33
43420;BME280;29017;51.514;-0.178;2023-02-28T11:16:21;102858.50;;;8.28;81.27
43420;BME280;29017;51.514;-0.178;2023-02-28T11:18:50;102860.88;;;8.32;81.51
43420;BME280;29017;51.514;-0.178;2023-02-28T11:23:50;102855.75;;;8.29;81.55
43420;BME280;29017;51.514;-0.178;2023-02-28T11:26:34;102848.34;;;8.37;81.23
43420;BME280;29017;51.514;-0.178;2023-02-28T11:29:09;102841.91;;;8.43;81.47
43420;BME280;29017;51.514;-0.178;2023-02-28T11:31:37;102830.38;;;8.45;81.22
43420;BME280;29017;51.514;-0.178;2023-02-28T11:34:21;102822.22;;;8.50;81.16
43420;BME280;29017;51.514;-0.178;2023-02-28T11:36:49;102817.41;;;8.58;81.05
43420;BME280;29017;51.514;-0.178;2023-02-28T11:39:18;102802.13;;;8.65;80.33
43420;BME280;29017;51.514;-0.178;2023-02-28T11:46:45;102780.41;;;8.77;80.73
43420;BME280;29017;51.514;-0.178;2023-02-28T11:51:48;102824.09;;;8.78;80.99
43420;BME280;29017;51.514;-0.178;2023-02-28T11:56:51;102824.59;;;8.69;81.77
43420;BME280;29017;51.514;-0.178;2023-02-28T12:11:56;102797.00;;;8.77;82.28
43420;BME280;29017;51.514;-0.178;2023-02-28T12:26:55;102778.63;;;9.06;82.05
43420;BME280;29017;51.514;-0.178;2023-02-28T12:31:58;102760.50;;;9.15;80.64
43420;BME280;29017;51.514;-0.178;2023-02-28T12:34:28;102750.19;;;9.12;80.20
43420;BME280;29017;51.514;-0.178;2023-02-28T12:36:58;102738.09;;;9.10;80.67
43420;BME280;29017;51.514;-0.178;2023-02-28T12:39:30;102736.53;;;9.07;81.06
43420;BME280;29017;51.514;-0.178;2023-02-28T12:42:17;102729.28;;;9.11;81.21
43420;BME280;29017;51.514;-0.178;2023-02-28T12:44:48;102723.00;;;9.13;80.76
43420;BME280;29017;51.514;-0.178;2023-02-28T12:47:17;102729.75;;;9.17;79.66
43420;BME280;29017;51.514;-0.178;2023-02-28T12:52:17;102725.25;;;9.05;79.66
43420;BME280;29017;51.514;-0.178;2023-02-28T12:54:48;102725.25;;;9.05;79.70
43420;BME280;29017;51.514;-0.178;2023-02-28T12:57:21;102734.75;;;9.08;79.88
43420;BME280;29017;51.514;-0.178;2023-02-28T12:59:53;102720.69;;;9.09;80.02
43420;BME280;29017;51.514;-0.178;2023-02-28T13:09:54;102700.06;;;9.02;79.64
43420;BME280;29017;51.514;-0.178;2023-02-28T13:12:23;102690.47;;;9.01;80.29
43420;BME280;29017;51.514;-0.178;2023-02-28T13:15:07;102699.22;;;9.02;79.78
43420;BME280;29017;51.514;-0.178;2023-02-28T13:17:39;102688.50;;;9.05;79.96
43420;BME280;29017;51.514;-0.178;2023-02-28T13:22:41;102682.94;;;9.10;79.54
43420;BME280;29017;51.514;-0.178;2023-02-28T13:27:39;102673.41;;;9.09;79.57
43420;BME280;29017;51.514;-0.178;2023-02-28T13:32:37;102659.19;;;8.98;80.40
43420;BME280;29017;51.514;-0.178;2023-02-28T13:37:36;102656.75;;;8.95;79.94
43420;BME280;29017;51.514;-0.178;2023-02-28T13:47:44;102652.75;;;9.17;79.64
43420;BME280;29017;51.514;-0.178;2023-02-28T13:55:24;102664.00;;;9.19;78.06
43420;BME280;29017;51.514;-0.178;2023-02-28T14:05:32;102652.69;;;9.31;78.18
43420;BME280;29017;51.514;-0.178;2023-02-28T14:10:33;102660.78;;;9.28;77.66
43420;BME280;29017;51.514;-0.178;2023-02-28T14:20:35;102641.00;;;9.22;77.77
43420;BME280;29017;51.514;-0.178;2023-02-28T14:25:33;102635.84;;;9.21;78.32
43420;BME280;29017;51.514;-0.178;2023-02-28T14:35:45;102621.25;;;9.17;78.53
43420;BME280;29017;51.514;-0.178;2023-02-28T14:38:19;102614.19;;;9.17;79.39
43420;BME280;29017;51.514;-0.178;2023-02-28T14:40:49;102617.13;;;9.13;79.57
43420;BME280;29017;51.514;-0.178;2023-02-28T14:43:19;102621.31;;;9.15;79.81
43420;BME280;29017;51.514;-0.178;2023-02-28T14:45:49;102613.56;;;9.14;80.52
43420;BME280;29017;51.514;-0.178;2023-02-28T14:48:17;102609.03;;;9.16;80.26
43420;BME280;29017;51.514;-0.178;2023-02-28T14:53:18;102604.09;;;9.11;80.11
43420;BME280;29017;51.514;-0.178;2023-02-28T14:55:46;102598.00;;;9.11;80.44
43420;BME280;29017;51.514;-0.178;2023-02-28T15:05:50;102593.94;;;9.19;80.21
43420;BME280;29017;51.514;-0.178;2023-02-28T15:08:18;102590.56;;;9.17;80.17
43420;BME280;29017;51.514;-0.178;2023-02-28T15:13:16;102582.53;;;9.06;80.19
43420;BME280;29017;51.514;-0.178;2023-02-28T15:20:59;102592.03;;;9.09;80.63
43420;BME280;29017;51.514;-0.178;2023-02-28T15:23:29;102582.16;;;9.12;80.49
43420;BME280;29017;51.514;-0.178;2023-02-28T15:25:57;102588.78;;;9.18;80.89
43420;BME280;29017;51.514;-0.178;2023-02-28T15:28:24;102586.16;;;9.18;81.14
43420;BME280;29017;51.514;-0.178;2023-02-28T15:30:53;102594.38;;;9.26;80.85
43420;BME280;29017;51.514;-0.178;2023-02-28T15:33:22;102594.81;;;9.32;79.47
43420;BME280;29017;51.514;-0.178;2023-02-28T15:35:49;102595.44;;;9.36;79.84
43420;BME280;29017;51.514;-0.178;2023-02-28T15:40:50;102583.91;;;9.38;78.80
43420;BME280;29017;51.514;-0.178;2023-02-28T15:45:52;102582.22;;;9.37;77.74
43420;BME280;29017;51.514;-0.178;2023-02-28T15:48:23;102585.47;;;9.41;78.52
43420;BME280;29017;51.514;-0.178;2023-02-28T15:50:52;102589.03;;;9.40;78.67
43420;BME280;29017;51.514;-0.178;2023-02-28T15:53:22;102583.59;;;9.43;78.71
43420;BME280;29017;51.514;-0.178;2023-02-28T15:58:20;102586.22;;;9.43;78.30
43420;BME280;29017;51.514;-0.178;2023-02-28T16:00:59;102589.59;;;9.45;78.54
43420;BME280;29017;51.514;-0.178;2023-02-28T16:03:34;102591.81;;;9.51;78.28
43420;BME280;29017;51.514;-0.178;2023-02-28T16:08:37;102593.50;;;9.52;77.59
43420;BME280;29017;51.514;-0.178;2023-02-28T16:11:04;102586.47;;;9.53;77.97
43420;BME280;29017;51.514;-0.178;2023-02-28T16:13:31;102594.44;;;9.51;77.93
43420;BME280;29017;51.514;-0.178;2023-02-28T16:15:58;102586.88;;;9.47;78.56
43420;BME280;29017;51.514;-0.178;2023-02-28T16:18:27;102586.97;;;9.45;79.16
43420;BME280;29017;51.514;-0.178;2023-02-28T16:20:54;102582.84;;;9.41;79.80
43420;BME280;29017;51.514;-0.178;2023-02-28T16:23:21;102590.09;;;9.37;79.96
43420;BME280;29017;51.514;-0.178;2023-02-28T16:25:49;102587.38;;;9.39;79.93
43420;BME280;29017;51.514;-0.178;2023-02-28T16:28:20;102593.56;;;9.38;80.05
43420;BME280;29017;51.514;-0.178;2023-02-28T16:30:48;102605.22;;;9.34;80.59
43420;BME280;29017;51.514;-0.178;2023-02-28T16:33:18;102605.13;;;9.35;80.29
43420;BME280;29017;51.514;-0.178;2023-02-28T16:35:45;102598.28;;;9.33;81.00
43420;BME280;29017;51.514;-0.178;2023-02-28T16:38:12;102607.88;;;9.34;79.77
43420;BME280;29017;51.514;-0.178;2023-02-28T16:40:39;102598.91;;;9.36;79.75
43420;BME280;29017;51.514;-0.178;2023-02-28T16:43:07;102611.44;;;9.33;80.28
43420;BME280;29017;51.514;-0.178;2023-02-28T16:45:36;102608.97;;;9.30;80.98
43420;BME280;29017;51.514;-0.178;2023-02-28T16:48:03;102620.00;;;9.22;80.96
43420;BME280;29017;51.514;-0.178;2023-02-28T16:50:31;102611.81;;;9.27;81.18